Kristin D — C6XA6 — position and weather

sailwx.info

Track history (hours):
 
Tides and Currents Weather Stations Pressure Air Temp Water Temp Dewpoint Dewpoint Depression Visibility Wind Speed Wind Dir Waves Ship Positions

Kristin D

Last reported at 2014-Nov-28 18:33 UTC. Time now 2014-Nov-29 01:19 UTC.
Position N 57°23' E 017°46'.

Length 90 m; draft 3.8 m.

Type: Cargo ship. MMSI: 311003700.

Date/timePositionNaut miles runAvg speedWind from/ knotsBaromVisibWave heightAir tempDewpointWater temp
2014-Nov-28 18:33N 57°23' E 017°46'1211.7
2014-Nov-28 17:33N 57°12' E 017°38'6411.6
2014-Nov-28 12:04N 56°13' E 016°54'67 9.9
2014-Nov-28 05:14N 55°35' E 015°15'710.1
2014-Nov-28 04:33N 55°31' E 015°05'1010.3
2014-Nov-28 03:33N 55°26' E 014°49'1110.5
2014-Nov-28 02:33N 55°20' E 014°34'1111.5
2014-Nov-28 01:33N 55°11' E 014°22'1111.4
2014-Nov-28 00:33N 55°02' E 014°09'1110.9
2014-Nov-27 23:33N 54°58' E 013°52'5710.5
2014-Nov-27 18:11N 54°34' E 012°22'711.0
2014-Nov-27 17:33N 54°28' E 012°16'1110.7
2014-Nov-27 16:33N 54°19' E 012°07'10 9.6
2014-Nov-27 15:33N 54°09' E 012°06'0 0.2
2014-Nov-27 14:24N 54°09' E 012°06'0 0.0
2014-Nov-27 13:24N 54°09' E 012°06'0 0.0
2014-Nov-27 12:12N 54°09' E 012°06'0 0.0
2014-Nov-27 11:27N 54°09' E 012°06'0 0.0
2014-Nov-27 10:24N 54°09' E 012°06'0 0.0
2014-Nov-27 09:24N 54°09' E 012°06'0 0.0
2014-Nov-27 08:18N 54°09' E 012°06'0 0.0
2014-Nov-27 07:33N 54°09' E 012°06'0 0.0
2014-Nov-27 06:33N 54°09' E 012°06'0 0.0
2014-Nov-27 05:30N 54°09' E 012°06'0 0.0
2014-Nov-27 04:21N 54°09' E 012°06'0 0.0
2014-Nov-27 03:27N 54°09' E 012°06'0 0.0
2014-Nov-27 01:33N 54°09' E 012°06'0 0.0
2014-Nov-27 00:15N 54°09' E 012°06'0 0.0
2014-Nov-26 23:24N 54°09' E 012°06'0 0.0
2014-Nov-26 22:18N 54°09' E 012°06'0 0.0
2014-Nov-26 21:23N 54°09' E 012°06'0 0.0
2014-Nov-26 19:11N 54°09' E 012°06'0 0.0
2014-Nov-26 18:29N 54°09' E 012°06'0 0.0
2014-Nov-26 17:32N 54°09' E 012°06'0 0.0
2014-Nov-26 16:31N 54°09' E 012°06'0 0.0
2014-Nov-26 15:32N 54°09' E 012°06'0 0.0
2014-Nov-26 14:25N 54°09' E 012°06'0 0.0
2014-Nov-26 13:31N 54°09' E 012°06'0 0.0
2014-Nov-26 12:16N 54°09' E 012°06'0 0.0
2014-Nov-26 11:13N 54°09' E 012°06'0 0.0
2014-Nov-26 10:25N 54°09' E 012°06'0 0.0
2014-Nov-26 09:28N 54°09' E 012°06'0 0.0
2014-Nov-26 08:31N 54°09' E 012°06'0 0.0
2014-Nov-26 07:22N 54°09' E 012°06'0 0.5
2014-Nov-26 06:33N 54°10' E 012°06'6 6.0
2014-Nov-26 05:33N 54°15' E 012°00'7 6.6
2014-Nov-26 04:28N 54°19' E 011°51'8 8.5
2014-Nov-26 03:31N 54°24' E 011°39'38 8.8
2014-Nov-25 23:11N 54°49' E 010°51'910.6
2014-Nov-25 22:21N 54°57' E 010°58'1011.1
2014-Nov-25 21:29N 55°07' E 011°02'69 1.5
2014-Nov-23 23:13N 56°10' E 011°52'811.5
2014-Nov-23 22:33N 56°11' E 012°06'1212.2
2014-Nov-23 21:34N 56°09' E 012°27'1413.9
2014-Nov-23 20:33N 55°58' E 012°43'1312.6
2014-Nov-23 19:33N 55°45' E 012°42'1413.7
2014-Nov-23 18:33N 55°31' E 012°43'1212.4
2014-Nov-23 17:33N 55°19' E 012°42'1111.4
2014-Nov-23 16:33N 55°16' E 013°01'3811.9
2014-Nov-23 13:24N 55°14' E 014°07'910.7
2014-Nov-23 12:33N 55°18' E 014°22'1211.5
2014-Nov-23 11:33N 55°25' E 014°37'1211.9
2014-Nov-23 10:33N 55°27' E 014°58'1212.0
2014-Nov-23 09:33N 55°28' E 015°18'1512.0
2014-Nov-23 08:18N 55°29' E 015°45'96 1.8
2014-Nov-21 04:33N 55°09' E 018°29'1311.7
2014-Nov-21 03:28N 55°04' E 018°09'2411.9
2014-Nov-21 01:29N 54°54' E 017°31'10611.6
2014-Nov-20 16:21N 54°11' E 014°45'911.6
2014-Nov-20 15:32N 54°07' E 014°31'1110.8
2014-Nov-20 14:33N 53°59' E 014°18'0 0.2
2014-Nov-20 13:32N 53°59' E 014°18'0 0.0
2014-Nov-20 12:32N 53°59' E 014°18'0 0.0
2014-Nov-20 11:32N 53°59' E 014°18'0 0.0
2014-Nov-20 10:32N 53°59' E 014°18'0 0.0
2014-Nov-20 09:32N 53°59' E 014°18'0 0.0
2014-Nov-20 08:32N 53°59' E 014°18'0 0.0
2014-Nov-20 07:32N 53°59' E 014°18'0 0.0
2014-Nov-20 06:32N 53°59' E 014°18'0 0.0
2014-Nov-20 05:32N 53°59' E 014°18'0 0.0
2014-Nov-20 04:32N 53°59' E 014°18'0 0.0
2014-Nov-20 03:32N 53°59' E 014°18'0 0.0
2014-Nov-20 02:32N 53°59' E 014°18'0 0.0
2014-Nov-20 01:32N 53°59' E 014°18'0 0.0
2014-Nov-20 00:29N 53°59' E 014°18'0 0.0
2014-Nov-19 23:32N 53°59' E 014°18'0 0.0
2014-Nov-19 22:32N 53°59' E 014°18'0 0.0
2014-Nov-19 21:32N 53°59' E 014°18'0 0.0
2014-Nov-19 20:32N 53°59' E 014°18'3 2.6
2014-Nov-19 19:33N 53°56' E 014°16'7 7.3
2014-Nov-19 18:33N 53°49' E 014°19'1111.3
2014-Nov-19 17:33N 53°40' E 014°31'1010.5
2014-Nov-19 16:33N 53°31' E 014°38'5 4.5
2014-Nov-19 15:33N 53°26' E 014°35'0 0.0
2014-Nov-19 14:32N 53°26' E 014°35'0 0.0
2014-Nov-19 13:32N 53°26' E 014°35'0 0.0
2014-Nov-19 12:32N 53°26' E 014°35'0 0.0
2014-Nov-19 11:32N 53°26' E 014°35'0 0.0
2014-Nov-19 10:32N 53°26' E 014°35'0 0.0
2014-Nov-19 09:29N 53°26' E 014°35'0 0.0
2014-Nov-19 08:32N 53°26' E 014°35'0 0.0
2014-Nov-19 07:32N 53°26' E 014°35'0 0.0
2014-Nov-19 06:32N 53°26' E 014°35'0 0.0
2014-Nov-19 05:32N 53°26' E 014°35'0 0.0
2014-Nov-19 04:32N 53°26' E 014°35'0 0.0
2014-Nov-19 03:32N 53°26' E 014°35'0 0.0
2014-Nov-19 02:32N 53°26' E 014°35'0 0.0
2014-Nov-19 01:32N 53°26' E 014°35'0 0.0
2014-Nov-19 00:32N 53°26' E 014°35'0 0.0
2014-Nov-18 23:32N 53°26' E 014°35'0 0.0
2014-Nov-18 22:32N 53°26' E 014°35'0 0.0
2014-Nov-18 21:32N 53°26' E 014°35'0 0.0
2014-Nov-18 20:32N 53°26' E 014°35'0 0.0
2014-Nov-18 19:32N 53°26' E 014°35'  
Track history (hours):
 
Tides and Currents Weather Stations Pressure Air Temp Water Temp Dewpoint Dewpoint Depression Visibility Wind Speed Wind Dir Waves Ship Positions

Kristin D

Last reported at 2014-Nov-28 18:33 UTC. Time now 2014-Nov-29 01:19 UTC.
Position N 57°23' E 017°46'.

Length 90 m; draft 3.8 m.

Type: Cargo ship. MMSI: 311003700.

Date/timePositionNaut miles runAvg speedWind from/ knotsBaromVisibWave heightAir tempDewpointWater temp
2014-Nov-28 18:33N 57°23' E 017°46'1211.7
2014-Nov-28 17:33N 57°12' E 017°38'6411.6
2014-Nov-28 12:04N 56°13' E 016°54'67 9.9
2014-Nov-28 05:14N 55°35' E 015°15'710.1
2014-Nov-28 04:33N 55°31' E 015°05'1010.3
2014-Nov-28 03:33N 55°26' E 014°49'1110.5
2014-Nov-28 02:33N 55°20' E 014°34'1111.5
2014-Nov-28 01:33N 55°11' E 014°22'1111.4
2014-Nov-28 00:33N 55°02' E 014°09'1110.9
2014-Nov-27 23:33N 54°58' E 013°52'5710.5
2014-Nov-27 18:11N 54°34' E 012°22'711.0
2014-Nov-27 17:33N 54°28' E 012°16'1110.7
2014-Nov-27 16:33N 54°19' E 012°07'10 9.6
2014-Nov-27 15:33N 54°09' E 012°06'0 0.2
2014-Nov-27 14:24N 54°09' E 012°06'0 0.0
2014-Nov-27 13:24N 54°09' E 012°06'0 0.0
2014-Nov-27 12:12N 54°09' E 012°06'0 0.0
2014-Nov-27 11:27N 54°09' E 012°06'0 0.0
2014-Nov-27 10:24N 54°09' E 012°06'0 0.0
2014-Nov-27 09:24N 54°09' E 012°06'0 0.0
2014-Nov-27 08:18N 54°09' E 012°06'0 0.0
2014-Nov-27 07:33N 54°09' E 012°06'0 0.0
2014-Nov-27 06:33N 54°09' E 012°06'0 0.0
2014-Nov-27 05:30N 54°09' E 012°06'0 0.0
2014-Nov-27 04:21N 54°09' E 012°06'0 0.0
2014-Nov-27 03:27N 54°09' E 012°06'0 0.0
2014-Nov-27 01:33N 54°09' E 012°06'0 0.0
2014-Nov-27 00:15N 54°09' E 012°06'0 0.0
2014-Nov-26 23:24N 54°09' E 012°06'0 0.0
2014-Nov-26 22:18N 54°09' E 012°06'0 0.0
2014-Nov-26 21:23N 54°09' E 012°06'0 0.0
2014-Nov-26 19:11N 54°09' E 012°06'0 0.0
2014-Nov-26 18:29N 54°09' E 012°06'0 0.0
2014-Nov-26 17:32N 54°09' E 012°06'0 0.0
2014-Nov-26 16:31N 54°09' E 012°06'0 0.0
2014-Nov-26 15:32N 54°09' E 012°06'0 0.0
2014-Nov-26 14:25N 54°09' E 012°06'0 0.0
2014-Nov-26 13:31N 54°09' E 012°06'0 0.0
2014-Nov-26 12:16N 54°09' E 012°06'0 0.0
2014-Nov-26 11:13N 54°09' E 012°06'0 0.0
2014-Nov-26 10:25N 54°09' E 012°06'0 0.0
2014-Nov-26 09:28N 54°09' E 012°06'0 0.0
2014-Nov-26 08:31N 54°09' E 012°06'0 0.0
2014-Nov-26 07:22N 54°09' E 012°06'0 0.5
2014-Nov-26 06:33N 54°10' E 012°06'6 6.0
2014-Nov-26 05:33N 54°15' E 012°00'7 6.6
2014-Nov-26 04:28N 54°19' E 011°51'8 8.5
2014-Nov-26 03:31N 54°24' E 011°39'38 8.8
2014-Nov-25 23:11N 54°49' E 010°51'910.6
2014-Nov-25 22:21N 54°57' E 010°58'1011.1
2014-Nov-25 21:29N 55°07' E 011°02'69 1.5
2014-Nov-23 23:13N 56°10' E 011°52'811.5
2014-Nov-23 22:33N 56°11' E 012°06'1212.2
2014-Nov-23 21:34N 56°09' E 012°27'1413.9
2014-Nov-23 20:33N 55°58' E 012°43'1312.6
2014-Nov-23 19:33N 55°45' E 012°42'1413.7
2014-Nov-23 18:33N 55°31' E 012°43'1212.4
2014-Nov-23 17:33N 55°19' E 012°42'1111.4
2014-Nov-23 16:33N 55°16' E 013°01'3811.9
2014-Nov-23 13:24N 55°14' E 014°07'910.7
2014-Nov-23 12:33N 55°18' E 014°22'1211.5
2014-Nov-23 11:33N 55°25' E 014°37'1211.9
2014-Nov-23 10:33N 55°27' E 014°58'1212.0
2014-Nov-23 09:33N 55°28' E 015°18'1512.0
2014-Nov-23 08:18N 55°29' E 015°45'96 1.8
2014-Nov-21 04:33N 55°09' E 018°29'1311.7
2014-Nov-21 03:28N 55°04' E 018°09'2411.9
2014-Nov-21 01:29N 54°54' E 017°31'10611.6
2014-Nov-20 16:21N 54°11' E 014°45'911.6
2014-Nov-20 15:32N 54°07' E 014°31'1110.8
2014-Nov-20 14:33N 53°59' E 014°18'0 0.2
2014-Nov-20 13:32N 53°59' E 014°18'0 0.0
2014-Nov-20 12:32N 53°59' E 014°18'0 0.0
2014-Nov-20 11:32N 53°59' E 014°18'0 0.0
2014-Nov-20 10:32N 53°59' E 014°18'0 0.0
2014-Nov-20 09:32N 53°59' E 014°18'0 0.0
2014-Nov-20 08:32N 53°59' E 014°18'0 0.0
2014-Nov-20 07:32N 53°59' E 014°18'0 0.0
2014-Nov-20 06:32N 53°59' E 014°18'0 0.0
2014-Nov-20 05:32N 53°59' E 014°18'0 0.0
2014-Nov-20 04:32N 53°59' E 014°18'0 0.0
2014-Nov-20 03:32N 53°59' E 014°18'0 0.0
2014-Nov-20 02:32N 53°59' E 014°18'0 0.0
2014-Nov-20 01:32N 53°59' E 014°18'0 0.0
2014-Nov-20 00:29N 53°59' E 014°18'0 0.0
2014-Nov-19 23:32N 53°59' E 014°18'0 0.0
2014-Nov-19 22:32N 53°59' E 014°18'0 0.0
2014-Nov-19 21:32N 53°59' E 014°18'0 0.0
2014-Nov-19 20:32N 53°59' E 014°18'3 2.6
2014-Nov-19 19:33N 53°56' E 014°16'7 7.3
2014-Nov-19 18:33N 53°49' E 014°19'1111.3
2014-Nov-19 17:33N 53°40' E 014°31'1010.5
2014-Nov-19 16:33N 53°31' E 014°38'5 4.5
2014-Nov-19 15:33N 53°26' E 014°35'0 0.0
2014-Nov-19 14:32N 53°26' E 014°35'0 0.0
2014-Nov-19 13:32N 53°26' E 014°35'0 0.0
2014-Nov-19 12:32N 53°26' E 014°35'0 0.0
2014-Nov-19 11:32N 53°26' E 014°35'0 0.0
2014-Nov-19 10:32N 53°26' E 014°35'0 0.0
2014-Nov-19 09:29N 53°26' E 014°35'0 0.0
2014-Nov-19 08:32N 53°26' E 014°35'0 0.0
2014-Nov-19 07:32N 53°26' E 014°35'0 0.0
2014-Nov-19 06:32N 53°26' E 014°35'0 0.0
2014-Nov-19 05:32N 53°26' E 014°35'0 0.0
2014-Nov-19 04:32N 53°26' E 014°35'0 0.0
2014-Nov-19 03:32N 53°26' E 014°35'0 0.0
2014-Nov-19 02:32N 53°26' E 014°35'0 0.0
2014-Nov-19 01:32N 53°26' E 014°35'0 0.0
2014-Nov-19 00:32N 53°26' E 014°35'0 0.0
2014-Nov-18 23:32N 53°26' E 014°35'0 0.0
2014-Nov-18 22:32N 53°26' E 014°35'0 0.0
2014-Nov-18 21:32N 53°26' E 014°35'0 0.0
2014-Nov-18 20:32N 53°26' E 014°35'0 0.0
2014-Nov-18 19:32N 53°26' E 014°35'  

Dump ship's entire track history